Terminal Aerodrome Forecast
Issued by NWS Bismarck, ND

Home | Current Version | Previous Version | Text Only | Print | Product List | Glossary On
Versions: 1 2 3 4 5 6 7 8 9 10 11 12
000
FTUS43 KBIS 300540
TAFBIS
TAF
KBIS 300540Z 3006/0106 13007KT P6SM SCT150 BKN200 WS020/17035KT
     FM301300 13010KT P6SM BKN100
     FM301700 16016G24KT P6SM BKN120
     FM010100 14010KT P6SM SCT150=

USA.gov is the U.S. government's official web portal to all federal, state and local government web resources and services.